West Bristol, Pennsylvania
Current Conditions -  °F | °C
As of 4:54 PM on Sunday 25 Jan 2015 (Local Time) from KPNE Reporting Station
Broken Clouds Broken Clouds  
Wind Chill: 39°   Ceiling: 3800
Heat Index: 42°   Visibility: 10mi
Dew Point: 29°   Wind: 5mph
Humidity: 60%   Direction: 280°W
Pressure: 29.86"   Gusts: NA
Location:  40.1156°N, 74.8582°W
Report Text: KPNE 252154Z AUTO 28004KT 10SM BKN038 BKN085 06/M02 A2986 RMK AO2 SLP111 T00561017 TSNO
Loading
Personal Weather Stations






























Interactive Weather Map New forecast layout! Learn more

10-Day Weather Forecast

Advertisements
Track Severe Weather on mobile